sensor_id;sensor_type;location;lat;lon;timestamp;temperature;humidity
12901;DHT22;6518;50.930;5.344;2022-12-11T00:02:06;1.50;99.90
12901;DHT22;6518;50.930;5.344;2022-12-11T00:04:33;1.40;99.90
12901;DHT22;6518;50.930;5.344;2022-12-11T00:07:01;1.40;99.90
12901;DHT22;6518;50.930;5.344;2022-12-11T00:09:28;1.40;99.90
12901;DHT22;6518;50.930;5.344;2022-12-11T00:11:55;1.40;99.90
12901;DHT22;6518;50.930;5.344;2022-12-11T00:14:22;1.40;99.90
12901;DHT22;6518;50.930;5.344;2022-12-11T00:16:48;1.40;99.90
12901;DHT22;6518;50.930;5.344;2022-12-11T00:19:17;1.40;99.90
12901;DHT22;6518;50.930;5.344;2022-12-11T00:21:43;1.40;99.90
12901;DHT22;6518;50.930;5.344;2022-12-11T00:24:10;1.40;99.90
12901;DHT22;6518;50.930;5.344;2022-12-11T00:26:37;1.40;99.90
12901;DHT22;6518;50.930;5.344;2022-12-11T00:29:04;1.40;99.90
12901;DHT22;6518;50.930;5.344;2022-12-11T00:31:32;1.40;99.90
12901;DHT22;6518;50.930;5.344;2022-12-11T00:34:00;1.40;99.90
12901;DHT22;6518;50.930;5.344;2022-12-11T00:36:28;1.40;99.90
12901;DHT22;6518;50.930;5.344;2022-12-11T00:38:55;1.40;99.90
12901;DHT22;6518;50.930;5.344;2022-12-11T00:41:22;1.40;99.90
12901;DHT22;6518;50.930;5.344;2022-12-11T00:43:49;1.40;99.90
12901;DHT22;6518;50.930;5.344;2022-12-11T00:46:16;1.40;99.90
12901;DHT22;6518;50.930;5.344;2022-12-11T00:48:43;1.40;99.90
12901;DHT22;6518;50.930;5.344;2022-12-11T00:51:11;1.40;99.90
12901;DHT22;6518;50.930;5.344;2022-12-11T00:53:39;1.50;99.90
12901;DHT22;6518;50.930;5.344;2022-12-11T00:56:11;1.50;99.90
12901;DHT22;6518;50.930;5.344;2022-12-11T00:58:38;1.50;99.90
12901;DHT22;6518;50.930;5.344;2022-12-11T01:01:06;1.50;99.90
12901;DHT22;6518;50.930;5.344;2022-12-11T01:03:33;1.60;99.90
12901;DHT22;6518;50.930;5.344;2022-12-11T01:06:00;1.60;99.90
12901;DHT22;6518;50.930;5.344;2022-12-11T01:08:27;1.60;99.90
12901;DHT22;6518;50.930;5.344;2022-12-11T01:11:02;1.60;99.90
12901;DHT22;6518;50.930;5.344;2022-12-11T01:13:28;1.60;99.90
12901;DHT22;6518;50.930;5.344;2022-12-11T01:15:55;1.60;99.90
12901;DHT22;6518;50.930;5.344;2022-12-11T01:18:22;1.60;99.90
12901;DHT22;6518;50.930;5.344;2022-12-11T01:20:49;1.60;99.90
12901;DHT22;6518;50.930;5.344;2022-12-11T01:23:16;1.60;99.90
12901;DHT22;6518;50.930;5.344;2022-12-11T01:25:43;1.60;99.90
12901;DHT22;6518;50.930;5.344;2022-12-11T01:28:11;1.60;99.90
12901;DHT22;6518;50.930;5.344;2022-12-11T01:30:40;1.60;99.90
12901;DHT22;6518;50.930;5.344;2022-12-11T01:33:08;1.50;99.90
12901;DHT22;6518;50.930;5.344;2022-12-11T01:35:35;1.60;99.90
12901;DHT22;6518;50.930;5.344;2022-12-11T01:38:02;1.60;99.90
12901;DHT22;6518;50.930;5.344;2022-12-11T01:40:29;1.60;99.90
12901;DHT22;6518;50.930;5.344;2022-12-11T01:42:56;1.50;99.90
12901;DHT22;6518;50.930;5.344;2022-12-11T01:45:32;1.50;99.90
12901;DHT22;6518;50.930;5.344;2022-12-11T01:48:04;1.60;99.90
12901;DHT22;6518;50.930;5.344;2022-12-11T01:50:35;1.60;99.90
12901;DHT22;6518;50.930;5.344;2022-12-11T01:53:05;1.50;99.90
12901;DHT22;6518;50.930;5.344;2022-12-11T01:55:32;1.50;99.90
12901;DHT22;6518;50.930;5.344;2022-12-11T01:58:01;1.60;99.90
12901;DHT22;6518;50.930;5.344;2022-12-11T02:00:30;1.50;99.90
12901;DHT22;6518;50.930;5.344;2022-12-11T02:02:56;1.60;99.90
12901;DHT22;6518;50.930;5.344;2022-12-11T02:05:23;1.60;99.90
12901;DHT22;6518;50.930;5.344;2022-12-11T02:07:52;1.50;99.90
12901;DHT22;6518;50.930;5.344;2022-12-11T02:10:22;1.50;99.90
12901;DHT22;6518;50.930;5.344;2022-12-11T02:12:55;1.50;99.90
12901;DHT22;6518;50.930;5.344;2022-12-11T02:15:28;1.50;99.90
12901;DHT22;6518;50.930;5.344;2022-12-11T02:18:06;1.60;99.90
12901;DHT22;6518;50.930;5.344;2022-12-11T02:20:42;1.60;99.90
12901;DHT22;6518;50.930;5.344;2022-12-11T02:23:40;1.70;99.90
12901;DHT22;6518;50.930;5.344;2022-12-11T02:29:06;1.70;99.90
12901;DHT22;6518;50.930;5.344;2022-12-11T02:31:37;1.70;99.90
12901;DHT22;6518;50.930;5.344;2022-12-11T02:34:11;1.70;99.90
12901;DHT22;6518;50.930;5.344;2022-12-11T02:36:43;1.60;99.90
12901;DHT22;6518;50.930;5.344;2022-12-11T02:39:12;1.60;99.90
12901;DHT22;6518;50.930;5.344;2022-12-11T02:41:42;1.60;99.90
12901;DHT22;6518;50.930;5.344;2022-12-11T02:44:13;1.60;99.90
12901;DHT22;6518;50.930;5.344;2022-12-11T02:46:41;1.50;99.90
12901;DHT22;6518;50.930;5.344;2022-12-11T02:49:11;1.50;99.90
12901;DHT22;6518;50.930;5.344;2022-12-11T02:51:39;1.50;99.90
12901;DHT22;6518;50.930;5.344;2022-12-11T02:54:09;1.50;99.90
12901;DHT22;6518;50.930;5.344;2022-12-11T02:56:40;1.50;99.90
12901;DHT22;6518;50.930;5.344;2022-12-11T02:59:13;1.50;99.90
12901;DHT22;6518;50.930;5.344;2022-12-11T03:01:42;1.50;99.90
12901;DHT22;6518;50.930;5.344;2022-12-11T03:04:09;1.50;99.90
12901;DHT22;6518;50.930;5.344;2022-12-11T03:06:42;1.50;99.90
12901;DHT22;6518;50.930;5.344;2022-12-11T03:09:09;1.50;99.90
12901;DHT22;6518;50.930;5.344;2022-12-11T03:11:36;1.50;99.90
12901;DHT22;6518;50.930;5.344;2022-12-11T03:14:03;1.60;99.90
12901;DHT22;6518;50.930;5.344;2022-12-11T03:16:34;1.60;99.90
12901;DHT22;6518;50.930;5.344;2022-12-11T03:19:09;1.70;99.90
12901;DHT22;6518;50.930;5.344;2022-12-11T03:21:45;1.70;99.90
12901;DHT22;6518;50.930;5.344;2022-12-11T03:24:18;1.70;99.90
12901;DHT22;6518;50.930;5.344;2022-12-11T03:26:50;1.70;99.90
12901;DHT22;6518;50.930;5.344;2022-12-11T03:29:19;1.70;99.90
12901;DHT22;6518;50.930;5.344;2022-12-11T03:31:52;1.60;99.90
12901;DHT22;6518;50.930;5.344;2022-12-11T03:34:24;1.60;99.90
12901;DHT22;6518;50.930;5.344;2022-12-11T03:36:53;1.60;99.90
12901;DHT22;6518;50.930;5.344;2022-12-11T03:39:25;1.60;99.90
12901;DHT22;6518;50.930;5.344;2022-12-11T03:41:54;1.60;99.90
12901;DHT22;6518;50.930;5.344;2022-12-11T03:44:22;1.60;99.90
12901;DHT22;6518;50.930;5.344;2022-12-11T03:46:51;1.60;99.90
12901;DHT22;6518;50.930;5.344;2022-12-11T03:49:21;1.60;99.90
12901;DHT22;6518;50.930;5.344;2022-12-11T03:51:51;1.60;99.90
12901;DHT22;6518;50.930;5.344;2022-12-11T03:54:19;1.60;99.90
12901;DHT22;6518;50.930;5.344;2022-12-11T03:56:47;1.50;99.90
12901;DHT22;6518;50.930;5.344;2022-12-11T03:59:15;1.50;99.90
12901;DHT22;6518;50.930;5.344;2022-12-11T04:01:41;1.50;99.90
12901;DHT22;6518;50.930;5.344;2022-12-11T04:04:10;1.50;99.90
12901;DHT22;6518;50.930;5.344;2022-12-11T04:06:36;1.50;99.90
12901;DHT22;6518;50.930;5.344;2022-12-11T04:09:03;1.50;99.90
12901;DHT22;6518;50.930;5.344;2022-12-11T04:11:30;1.60;99.90
12901;DHT22;6518;50.930;5.344;2022-12-11T04:14:00;1.60;99.90
12901;DHT22;6518;50.930;5.344;2022-12-11T04:16:44;1.70;99.90
12901;DHT22;6518;50.930;5.344;2022-12-11T04:19:12;1.70;99.90
12901;DHT22;6518;50.930;5.344;2022-12-11T04:21:56;1.60;99.90
12901;DHT22;6518;50.930;5.344;2022-12-11T04:24:40;1.60;99.90
12901;DHT22;6518;50.930;5.344;2022-12-11T04:27:08;1.60;99.90
12901;DHT22;6518;50.930;5.344;2022-12-11T04:29:34;1.60;99.90
12901;DHT22;6518;50.930;5.344;2022-12-11T04:32:01;1.50;99.90
12901;DHT22;6518;50.930;5.344;2022-12-11T04:34:29;1.50;99.90
12901;DHT22;6518;50.930;5.344;2022-12-11T04:36:56;1.40;99.90
12901;DHT22;6518;50.930;5.344;2022-12-11T04:39:23;1.40;99.90
12901;DHT22;6518;50.930;5.344;2022-12-11T04:41:50;1.40;99.90
12901;DHT22;6518;50.930;5.344;2022-12-11T04:44:17;1.40;99.90
12901;DHT22;6518;50.930;5.344;2022-12-11T04:46:43;1.40;99.90
12901;DHT22;6518;50.930;5.344;2022-12-11T04:49:10;1.30;99.90
12901;DHT22;6518;50.930;5.344;2022-12-11T04:51:38;1.30;99.90
12901;DHT22;6518;50.930;5.344;2022-12-11T04:54:05;1.30;99.90
12901;DHT22;6518;50.930;5.344;2022-12-11T04:56:32;1.30;99.90
12901;DHT22;6518;50.930;5.344;2022-12-11T04:59:00;1.30;99.90
12901;DHT22;6518;50.930;5.344;2022-12-11T05:01:26;1.40;99.90
12901;DHT22;6518;50.930;5.344;2022-12-11T05:03:53;1.50;99.90
12901;DHT22;6518;50.930;5.344;2022-12-11T05:06:20;1.50;99.90
12901;DHT22;6518;50.930;5.344;2022-12-11T05:08:49;1.50;99.90
12901;DHT22;6518;50.930;5.344;2022-12-11T05:11:16;1.50;99.90
12901;DHT22;6518;50.930;5.344;2022-12-11T05:13:43;1.50;99.90
12901;DHT22;6518;50.930;5.344;2022-12-11T05:16:12;1.50;99.90
12901;DHT22;6518;50.930;5.344;2022-12-11T05:18:39;1.40;99.90
12901;DHT22;6518;50.930;5.344;2022-12-11T05:21:07;1.40;99.90
12901;DHT22;6518;50.930;5.344;2022-12-11T05:23:35;1.40;99.90
12901;DHT22;6518;50.930;5.344;2022-12-11T05:26:05;1.40;99.90
12901;DHT22;6518;50.930;5.344;2022-12-11T05:28:35;1.30;99.90
12901;DHT22;6518;50.930;5.344;2022-12-11T05:31:04;1.30;99.90
12901;DHT22;6518;50.930;5.344;2022-12-11T05:33:32;1.30;99.90
12901;DHT22;6518;50.930;5.344;2022-12-11T05:35:59;1.30;99.90
12901;DHT22;6518;50.930;5.344;2022-12-11T05:38:26;1.30;99.90
12901;DHT22;6518;50.930;5.344;2022-12-11T05:40:57;1.30;99.90
12901;DHT22;6518;50.930;5.344;2022-12-11T05:43:27;1.30;99.90
12901;DHT22;6518;50.930;5.344;2022-12-11T05:45:54;1.30;99.90
12901;DHT22;6518;50.930;5.344;2022-12-11T05:48:22;1.30;99.90
12901;DHT22;6518;50.930;5.344;2022-12-11T05:50:57;1.30;99.90
12901;DHT22;6518;50.930;5.344;2022-12-11T05:53:24;1.40;99.90
12901;DHT22;6518;50.930;5.344;2022-12-11T05:55:51;1.50;99.90
12901;DHT22;6518;50.930;5.344;2022-12-11T05:58:18;1.50;99.90
12901;DHT22;6518;50.930;5.344;2022-12-11T06:00:46;1.50;99.90
12901;DHT22;6518;50.930;5.344;2022-12-11T06:03:13;1.50;99.90
12901;DHT22;6518;50.930;5.344;2022-12-11T06:05:40;1.50;99.90
12901;DHT22;6518;50.930;5.344;2022-12-11T06:08:08;1.50;99.90
12901;DHT22;6518;50.930;5.344;2022-12-11T06:10:35;1.50;99.90
12901;DHT22;6518;50.930;5.344;2022-12-11T06:13:02;1.40;99.90
12901;DHT22;6518;50.930;5.344;2022-12-11T06:15:29;1.40;99.90
12901;DHT22;6518;50.930;5.344;2022-12-11T06:17:57;1.40;99.90
12901;DHT22;6518;50.930;5.344;2022-12-11T06:20:23;1.40;99.90
12901;DHT22;6518;50.930;5.344;2022-12-11T06:22:50;1.40;99.90
12901;DHT22;6518;50.930;5.344;2022-12-11T06:25:17;1.40;99.90
12901;DHT22;6518;50.930;5.344;2022-12-11T06:27:44;1.40;99.90
12901;DHT22;6518;50.930;5.344;2022-12-11T06:30:11;1.40;99.90
12901;DHT22;6518;50.930;5.344;2022-12-11T06:32:38;1.40;99.90
12901;DHT22;6518;50.930;5.344;2022-12-11T06:35:07;1.40;99.90
12901;DHT22;6518;50.930;5.344;2022-12-11T06:37:34;1.40;99.90
12901;DHT22;6518;50.930;5.344;2022-12-11T06:40:02;1.50;99.90
12901;DHT22;6518;50.930;5.344;2022-12-11T06:42:29;1.60;99.90
12901;DHT22;6518;50.930;5.344;2022-12-11T06:44:58;1.60;99.90
12901;DHT22;6518;50.930;5.344;2022-12-11T06:47:25;1.70;99.90
12901;DHT22;6518;50.930;5.344;2022-12-11T06:49:52;1.70;99.90
12901;DHT22;6518;50.930;5.344;2022-12-11T06:52:21;1.80;99.90
12901;DHT22;6518;50.930;5.344;2022-12-11T06:54:49;2.10;99.90
12901;DHT22;6518;50.930;5.344;2022-12-11T06:57:16;1.80;99.90
12901;DHT22;6518;50.930;5.344;2022-12-11T06:59:44;1.80;99.90
12901;DHT22;6518;50.930;5.344;2022-12-11T07:02:11;1.80;99.90
12901;DHT22;6518;50.930;5.344;2022-12-11T07:04:38;1.90;99.90
12901;DHT22;6518;50.930;5.344;2022-12-11T07:07:05;1.80;99.90
12901;DHT22;6518;50.930;5.344;2022-12-11T07:09:34;1.80;99.90
12901;DHT22;6518;50.930;5.344;2022-12-11T07:12:02;1.90;99.90
12901;DHT22;6518;50.930;5.344;2022-12-11T07:14:29;1.90;99.90
12901;DHT22;6518;50.930;5.344;2022-12-11T07:16:57;1.90;99.90
12901;DHT22;6518;50.930;5.344;2022-12-11T07:19:24;1.90;99.90
12901;DHT22;6518;50.930;5.344;2022-12-11T07:21:51;1.90;99.90
12901;DHT22;6518;50.930;5.344;2022-12-11T07:24:18;1.90;99.90
12901;DHT22;6518;50.930;5.344;2022-12-11T07:26:46;1.90;99.90
12901;DHT22;6518;50.930;5.344;2022-12-11T07:29:15;1.90;99.90
12901;DHT22;6518;50.930;5.344;2022-12-11T07:31:42;1.90;99.90
12901;DHT22;6518;50.930;5.344;2022-12-11T07:34:11;1.90;99.90
12901;DHT22;6518;50.930;5.344;2022-12-11T07:36:38;1.90;99.90
12901;DHT22;6518;50.930;5.344;2022-12-11T07:39:05;2.00;99.90
12901;DHT22;6518;50.930;5.344;2022-12-11T07:41:33;1.90;99.90
12901;DHT22;6518;50.930;5.344;2022-12-11T07:44:01;2.00;99.90
12901;DHT22;6518;50.930;5.344;2022-12-11T07:46:31;2.00;99.90
12901;DHT22;6518;50.930;5.344;2022-12-11T07:48:58;2.00;99.90
12901;DHT22;6518;50.930;5.344;2022-12-11T07:51:28;2.00;99.90
12901;DHT22;6518;50.930;5.344;2022-12-11T07:53:57;2.00;99.90
12901;DHT22;6518;50.930;5.344;2022-12-11T07:56:25;2.00;99.90
12901;DHT22;6518;50.930;5.344;2022-12-11T07:58:52;2.00;99.90
12901;DHT22;6518;50.930;5.344;2022-12-11T08:01:22;2.00;99.90
12901;DHT22;6518;50.930;5.344;2022-12-11T08:03:51;2.00;99.90
12901;DHT22;6518;50.930;5.344;2022-12-11T08:06:23;2.00;99.90
12901;DHT22;6518;50.930;5.344;2022-12-11T08:08:50;2.00;99.90
12901;DHT22;6518;50.930;5.344;2022-12-11T08:11:16;2.00;99.90
12901;DHT22;6518;50.930;5.344;2022-12-11T08:13:43;2.00;99.90
12901;DHT22;6518;50.930;5.344;2022-12-11T08:16:12;2.00;99.90
12901;DHT22;6518;50.930;5.344;2022-12-11T08:18:44;2.00;99.90
12901;DHT22;6518;50.930;5.344;2022-12-11T08:21:13;2.00;99.90
12901;DHT22;6518;50.930;5.344;2022-12-11T08:23:41;2.00;99.90
12901;DHT22;6518;50.930;5.344;2022-12-11T08:26:09;2.00;99.90
12901;DHT22;6518;50.930;5.344;2022-12-11T08:28:36;2.00;99.90
12901;DHT22;6518;50.930;5.344;2022-12-11T08:31:03;2.00;99.90
12901;DHT22;6518;50.930;5.344;2022-12-11T08:33:30;2.10;99.90
12901;DHT22;6518;50.930;5.344;2022-12-11T08:36:01;2.10;99.90
12901;DHT22;6518;50.930;5.344;2022-12-11T08:38:28;2.10;99.90
12901;DHT22;6518;50.930;5.344;2022-12-11T08:40:55;2.10;99.90
12901;DHT22;6518;50.930;5.344;2022-12-11T08:43:22;2.20;99.90
12901;DHT22;6518;50.930;5.344;2022-12-11T08:45:49;2.20;99.90
12901;DHT22;6518;50.930;5.344;2022-12-11T08:48:16;2.20;99.90
12901;DHT22;6518;50.930;5.344;2022-12-11T08:50:42;2.20;99.90
12901;DHT22;6518;50.930;5.344;2022-12-11T08:53:11;2.20;99.90
12901;DHT22;6518;50.930;5.344;2022-12-11T08:55:38;2.20;99.90
12901;DHT22;6518;50.930;5.344;2022-12-11T08:58:04;2.20;99.90
12901;DHT22;6518;50.930;5.344;2022-12-11T09:00:31;2.30;99.90
12901;DHT22;6518;50.930;5.344;2022-12-11T09:02:58;2.30;99.90
12901;DHT22;6518;50.930;5.344;2022-12-11T09:05:25;2.30;99.90
12901;DHT22;6518;50.930;5.344;2022-12-11T09:07:51;2.30;99.90
12901;DHT22;6518;50.930;5.344;2022-12-11T09:10:20;2.30;99.90
12901;DHT22;6518;50.930;5.344;2022-12-11T09:12:46;2.30;99.90
12901;DHT22;6518;50.930;5.344;2022-12-11T09:15:13;2.30;99.90
12901;DHT22;6518;50.930;5.344;2022-12-11T09:17:40;2.30;99.90
12901;DHT22;6518;50.930;5.344;2022-12-11T09:20:07;2.30;99.90
12901;DHT22;6518;50.930;5.344;2022-12-11T09:22:34;2.30;99.90
12901;DHT22;6518;50.930;5.344;2022-12-11T09:25:01;2.40;99.90
12901;DHT22;6518;50.930;5.344;2022-12-11T09:27:29;2.40;99.90
12901;DHT22;6518;50.930;5.344;2022-12-11T09:29:56;2.40;99.90
12901;DHT22;6518;50.930;5.344;2022-12-11T09:32:23;2.40;99.90
12901;DHT22;6518;50.930;5.344;2022-12-11T09:34:50;2.40;99.90
12901;DHT22;6518;50.930;5.344;2022-12-11T09:37:17;2.40;99.90
12901;DHT22;6518;50.930;5.344;2022-12-11T09:39:44;2.40;99.90
12901;DHT22;6518;50.930;5.344;2022-12-11T09:42:14;2.40;99.90
12901;DHT22;6518;50.930;5.344;2022-12-11T09:44:48;2.40;99.90
12901;DHT22;6518;50.930;5.344;2022-12-11T09:47:20;2.40;99.90
12901;DHT22;6518;50.930;5.344;2022-12-11T09:49:49;2.40;99.90
12901;DHT22;6518;50.930;5.344;2022-12-11T09:52:21;2.40;99.90
12901;DHT22;6518;50.930;5.344;2022-12-11T09:54:52;2.40;99.90
12901;DHT22;6518;50.930;5.344;2022-12-11T09:57:38;2.40;99.90
12901;DHT22;6518;50.930;5.344;2022-12-11T10:00:14;2.40;99.90
12901;DHT22;6518;50.930;5.344;2022-12-11T10:03:03;2.40;99.90
12901;DHT22;6518;50.930;5.344;2022-12-11T10:05:37;2.40;99.90
12901;DHT22;6518;50.930;5.344;2022-12-11T10:08:13;2.50;99.90
12901;DHT22;6518;50.930;5.344;2022-12-11T10:10:44;2.50;99.90
12901;DHT22;6518;50.930;5.344;2022-12-11T10:13:23;2.50;99.90
12901;DHT22;6518;50.930;5.344;2022-12-11T10:15:59;2.50;99.90
12901;DHT22;6518;50.930;5.344;2022-12-11T10:18:30;2.50;99.90
12901;DHT22;6518;50.930;5.344;2022-12-11T10:21:00;2.50;99.90
12901;DHT22;6518;50.930;5.344;2022-12-11T10:23:33;2.50;99.90
12901;DHT22;6518;50.930;5.344;2022-12-11T10:26:05;2.50;99.90
12901;DHT22;6518;50.930;5.344;2022-12-11T10:28:33;2.50;99.90
12901;DHT22;6518;50.930;5.344;2022-12-11T10:31:12;2.50;99.90
12901;DHT22;6518;50.930;5.344;2022-12-11T10:33:53;2.50;99.90
12901;DHT22;6518;50.930;5.344;2022-12-11T10:36:28;2.60;99.90
12901;DHT22;6518;50.930;5.344;2022-12-11T10:38:55;2.60;99.90
12901;DHT22;6518;50.930;5.344;2022-12-11T10:41:28;2.70;99.90
12901;DHT22;6518;50.930;5.344;2022-12-11T10:43:58;2.60;99.90
12901;DHT22;6518;50.930;5.344;2022-12-11T10:46:28;2.70;99.90
12901;DHT22;6518;50.930;5.344;2022-12-11T10:48:58;2.70;99.90
12901;DHT22;6518;50.930;5.344;2022-12-11T10:51:33;2.70;99.90
12901;DHT22;6518;50.930;5.344;2022-12-11T10:54:04;2.70;99.90
12901;DHT22;6518;50.930;5.344;2022-12-11T10:56:33;2.80;99.90
12901;DHT22;6518;50.930;5.344;2022-12-11T10:59:01;2.70;99.90
12901;DHT22;6518;50.930;5.344;2022-12-11T11:01:30;2.70;99.90
12901;DHT22;6518;50.930;5.344;2022-12-11T11:04:01;2.70;99.90
12901;DHT22;6518;50.930;5.344;2022-12-11T11:06:29;2.80;99.90
12901;DHT22;6518;50.930;5.344;2022-12-11T11:08:58;2.80;99.90
12901;DHT22;6518;50.930;5.344;2022-12-11T11:11:28;2.80;99.70
12901;DHT22;6518;50.930;5.344;2022-12-11T11:14:10;2.80;99.90
12901;DHT22;6518;50.930;5.344;2022-12-11T11:16:41;2.80;99.90
12901;DHT22;6518;50.930;5.344;2022-12-11T11:19:17;2.80;99.90
12901;DHT22;6518;50.930;5.344;2022-12-11T11:21:48;2.80;99.90
12901;DHT22;6518;50.930;5.344;2022-12-11T11:24:32;2.80;99.20
12901;DHT22;6518;50.930;5.344;2022-12-11T11:27:00;2.80;99.50
12901;DHT22;6518;50.930;5.344;2022-12-11T11:29:31;2.80;98.70
12901;DHT22;6518;50.930;5.344;2022-12-11T11:32:11;2.80;98.40
12901;DHT22;6518;50.930;5.344;2022-12-11T11:34:39;2.80;98.60
12901;DHT22;6518;50.930;5.344;2022-12-11T11:37:22;2.80;98.60
12901;DHT22;6518;50.930;5.344;2022-12-11T11:39:52;2.80;98.60
12901;DHT22;6518;50.930;5.344;2022-12-11T11:42:24;2.80;98.90
12901;DHT22;6518;50.930;5.344;2022-12-11T11:45:01;2.80;97.30
12901;DHT22;6518;50.930;5.344;2022-12-11T11:47:35;2.80;98.40
12901;DHT22;6518;50.930;5.344;2022-12-11T11:50:07;2.80;98.50
12901;DHT22;6518;50.930;5.344;2022-12-11T11:52:40;2.80;97.80
12901;DHT22;6518;50.930;5.344;2022-12-11T11:55:15;2.80;97.70
12901;DHT22;6518;50.930;5.344;2022-12-11T11:57:46;2.80;97.90
12901;DHT22;6518;50.930;5.344;2022-12-11T12:00:18;2.80;98.80
12901;DHT22;6518;50.930;5.344;2022-12-11T12:02:52;2.80;98.30
12901;DHT22;6518;50.930;5.344;2022-12-11T12:05:24;2.80;97.90
12901;DHT22;6518;50.930;5.344;2022-12-11T12:08:03;2.80;97.90
12901;DHT22;6518;50.930;5.344;2022-12-11T12:10:43;2.80;96.20
12901;DHT22;6518;50.930;5.344;2022-12-11T12:13:19;2.80;95.80
12901;DHT22;6518;50.930;5.344;2022-12-11T12:15:54;2.80;96.40
12901;DHT22;6518;50.930;5.344;2022-12-11T12:18:27;2.80;95.40
12901;DHT22;6518;50.930;5.344;2022-12-11T12:21:01;2.80;95.50
12901;DHT22;6518;50.930;5.344;2022-12-11T12:23:49;2.80;95.90
12901;DHT22;6518;50.930;5.344;2022-12-11T12:26:25;2.80;96.60
12901;DHT22;6518;50.930;5.344;2022-12-11T12:29:03;2.80;96.00
12901;DHT22;6518;50.930;5.344;2022-12-11T12:31:43;2.80;95.90
12901;DHT22;6518;50.930;5.344;2022-12-11T12:34:21;2.80;95.60
12901;DHT22;6518;50.930;5.344;2022-12-11T12:36:55;2.80;94.50
12901;DHT22;6518;50.930;5.344;2022-12-11T12:39:35;2.80;94.20
12901;DHT22;6518;50.930;5.344;2022-12-11T12:42:10;2.80;95.20
12901;DHT22;6518;50.930;5.344;2022-12-11T12:44:47;2.90;95.10
12901;DHT22;6518;50.930;5.344;2022-12-11T12:47:18;2.90;94.30
12901;DHT22;6518;50.930;5.344;2022-12-11T12:49:48;2.90;94.50
12901;DHT22;6518;50.930;5.344;2022-12-11T12:52:18;2.90;94.50
12901;DHT22;6518;50.930;5.344;2022-12-11T12:54:51;2.90;94.30
12901;DHT22;6518;50.930;5.344;2022-12-11T12:57:37;3.00;94.00
12901;DHT22;6518;50.930;5.344;2022-12-11T13:00:06;3.00;94.20
12901;DHT22;6518;50.930;5.344;2022-12-11T13:02:36;3.00;94.40
12901;DHT22;6518;50.930;5.344;2022-12-11T13:05:17;3.00;94.00
12901;DHT22;6518;50.930;5.344;2022-12-11T13:07:48;3.00;93.90
12901;DHT22;6518;50.930;5.344;2022-12-11T13:10:25;3.00;93.40
12901;DHT22;6518;50.930;5.344;2022-12-11T13:12:53;3.00;93.80
12901;DHT22;6518;50.930;5.344;2022-12-11T13:15:33;3.10;93.90
12901;DHT22;6518;50.930;5.344;2022-12-11T13:18:02;3.10;93.30
12901;DHT22;6518;50.930;5.344;2022-12-11T13:20:32;3.10;92.30
12901;DHT22;6518;50.930;5.344;2022-12-11T13:23:19;3.10;93.40
12901;DHT22;6518;50.930;5.344;2022-12-11T13:25:53;3.20;93.20
12901;DHT22;6518;50.930;5.344;2022-12-11T13:28:24;3.20;92.70
12901;DHT22;6518;50.930;5.344;2022-12-11T13:31:03;3.30;92.50
12901;DHT22;6518;50.930;5.344;2022-12-11T13:33:31;3.30;93.10
12901;DHT22;6518;50.930;5.344;2022-12-11T13:36:30;3.30;92.80
12901;DHT22;6518;50.930;5.344;2022-12-11T13:39:01;3.30;92.90
12901;DHT22;6518;50.930;5.344;2022-12-11T13:41:29;3.30;92.60
12901;DHT22;6518;50.930;5.344;2022-12-11T13:43:57;3.30;91.90
12901;DHT22;6518;50.930;5.344;2022-12-11T13:46:27;3.30;92.10
12901;DHT22;6518;50.930;5.344;2022-12-11T13:48:58;3.30;92.00
12901;DHT22;6518;50.930;5.344;2022-12-11T13:51:27;3.30;92.00
12901;DHT22;6518;50.930;5.344;2022-12-11T13:54:12;3.20;91.60
12901;DHT22;6518;50.930;5.344;2022-12-11T13:56:51;3.30;92.00
12901;DHT22;6518;50.930;5.344;2022-12-11T13:59:24;3.30;91.80
12901;DHT22;6518;50.930;5.344;2022-12-11T14:01:58;3.30;92.20
12901;DHT22;6518;50.930;5.344;2022-12-11T14:04:26;3.20;92.00
12901;DHT22;6518;50.930;5.344;2022-12-11T14:06:54;3.20;91.40
12901;DHT22;6518;50.930;5.344;2022-12-11T14:09:25;3.20;91.20
12901;DHT22;6518;50.930;5.344;2022-12-11T14:11:54;3.20;91.30
12901;DHT22;6518;50.930;5.344;2022-12-11T14:14:26;3.10;91.10
12901;DHT22;6518;50.930;5.344;2022-12-11T14:16:54;3.10;91.00
12901;DHT22;6518;50.930;5.344;2022-12-11T14:19:22;3.10;91.10
12901;DHT22;6518;50.930;5.344;2022-12-11T14:21:58;3.10;91.10
12901;DHT22;6518;50.930;5.344;2022-12-11T14:24:28;3.10;90.90
12901;DHT22;6518;50.930;5.344;2022-12-11T14:26:55;3.00;90.90
12901;DHT22;6518;50.930;5.344;2022-12-11T14:29:24;3.00;90.90
12901;DHT22;6518;50.930;5.344;2022-12-11T14:31:51;3.00;91.10
12901;DHT22;6518;50.930;5.344;2022-12-11T14:34:23;3.10;91.00
12901;DHT22;6518;50.930;5.344;2022-12-11T14:36:51;3.00;91.00
12901;DHT22;6518;50.930;5.344;2022-12-11T14:39:24;3.00;91.00
12901;DHT22;6518;50.930;5.344;2022-12-11T14:41:57;3.00;91.30
12901;DHT22;6518;50.930;5.344;2022-12-11T14:44:28;3.00;90.90
12901;DHT22;6518;50.930;5.344;2022-12-11T14:46:59;2.90;90.60
12901;DHT22;6518;50.930;5.344;2022-12-11T14:49:37;2.80;90.60
12901;DHT22;6518;50.930;5.344;2022-12-11T14:52:14;2.80;90.60
12901;DHT22;6518;50.930;5.344;2022-12-11T14:54:45;2.70;90.30
12901;DHT22;6518;50.930;5.344;2022-12-11T14:57:18;2.60;90.70
12901;DHT22;6518;50.930;5.344;2022-12-11T14:59:47;2.50;90.90
12901;DHT22;6518;50.930;5.344;2022-12-11T15:02:27;2.50;91.10
12901;DHT22;6518;50.930;5.344;2022-12-11T15:05:13;2.40;91.00
12901;DHT22;6518;50.930;5.344;2022-12-11T15:07:53;2.30;91.30
12901;DHT22;6518;50.930;5.344;2022-12-11T15:10:22;2.30;91.70
12901;DHT22;6518;50.930;5.344;2022-12-11T15:12:50;2.30;91.80
12901;DHT22;6518;50.930;5.344;2022-12-11T15:15:18;2.30;93.00
12901;DHT22;6518;50.930;5.344;2022-12-11T15:17:46;2.40;93.70
12901;DHT22;6518;50.930;5.344;2022-12-11T15:20:22;2.50;93.30
12901;DHT22;6518;50.930;5.344;2022-12-11T15:22:50;2.50;93.00
12901;DHT22;6518;50.930;5.344;2022-12-11T15:25:19;2.50;92.70
12901;DHT22;6518;50.930;5.344;2022-12-11T15:27:51;2.50;92.80
12901;DHT22;6518;50.930;5.344;2022-12-11T15:30:29;2.50;92.90
12901;DHT22;6518;50.930;5.344;2022-12-11T15:33:19;2.50;92.90
12901;DHT22;6518;50.930;5.344;2022-12-11T15:35:58;2.50;93.00
12901;DHT22;6518;50.930;5.344;2022-12-11T15:38:34;2.50;93.10
12901;DHT22;6518;50.930;5.344;2022-12-11T15:41:02;2.50;93.00
12901;DHT22;6518;50.930;5.344;2022-12-11T15:43:36;2.50;93.20
12901;DHT22;6518;50.930;5.344;2022-12-11T15:46:04;2.60;93.40
12901;DHT22;6518;50.930;5.344;2022-12-11T15:48:31;2.50;93.40
12901;DHT22;6518;50.930;5.344;2022-12-11T15:50:58;2.50;93.50
12901;DHT22;6518;50.930;5.344;2022-12-11T15:53:25;2.50;93.60
12901;DHT22;6518;50.930;5.344;2022-12-11T15:55:52;2.50;93.80
12901;DHT22;6518;50.930;5.344;2022-12-11T15:58:20;2.50;93.70
12901;DHT22;6518;50.930;5.344;2022-12-11T16:00:50;2.50;93.90
12901;DHT22;6518;50.930;5.344;2022-12-11T16:03:19;2.50;94.10
12901;DHT22;6518;50.930;5.344;2022-12-11T16:05:48;2.50;94.30
12901;DHT22;6518;50.930;5.344;2022-12-11T16:08:17;2.50;94.40
12901;DHT22;6518;50.930;5.344;2022-12-11T16:10:45;2.50;94.60
12901;DHT22;6518;50.930;5.344;2022-12-11T16:13:12;2.50;94.70
12901;DHT22;6518;50.930;5.344;2022-12-11T16:15:41;2.50;94.80
12901;DHT22;6518;50.930;5.344;2022-12-11T16:18:11;2.50;94.90
12901;DHT22;6518;50.930;5.344;2022-12-11T16:20:39;2.50;95.20
12901;DHT22;6518;50.930;5.344;2022-12-11T16:23:07;2.50;95.40
12901;DHT22;6518;50.930;5.344;2022-12-11T16:25:36;2.50;95.40